Time;durP1;ratioP1;P1;durP2;ratioP2;P2;SDS_P1;SDS_P2;PMS_P1;PMS_P2;Temp;Humidity;BMP_temperature;BMP_pressure;BME280_temperature;BME280_humidity;BME280_pressure;Samples;Min_cycle;Max_cycle;Signal;HPM_P1;HPM_P2
2021/11/22 00:01:40;;;;;;;8.07;2.50;;;;;;;3.00;100.00;102439.53;10588285;28;20043;-59
2021/11/22 00:06:43;;;;;;;12.38;3.80;;;;;;;2.96;100.00;102458.53;10588172;28;20556;-59
2021/11/22 00:11:48;;;;;;;7.93;2.40;;;;;;;3.08;100.00;102522.38;10569708;28;20059;-59
2021/11/22 00:16:50;;;;;;;4.97;2.35;;;;;;;2.90;100.00;102451.59;10570591;28;20048;-59
2021/11/22 00:21:53;;;;;;;8.45;3.20;;;;;;;2.79;100.00;102448.13;10587539;28;20047;-60
2021/11/22 00:26:55;;;;;;;7.25;3.05;;;;;;;3.03;100.00;102462.84;10587592;28;20047;-59
2021/11/22 00:32:00;;;;;;;5.00;2.35;;;;;;;3.06;100.00;102460.25;10569198;28;20056;-59
2021/11/22 00:37:03;;;;;;;5.78;2.30;;;;;;;3.18;100.00;102480.09;10587054;28;20043;-58
2021/11/22 00:42:09;;;;;;;4.93;2.65;;;;;;;3.01;100.00;102471.44;10586903;28;20083;-59
2021/11/22 00:47:12;;;;;;;17.48;4.45;;;;;;;2.92;100.00;102480.94;10586856;28;20046;-59
2021/11/22 00:52:14;;;;;;;11.10;3.13;;;;;;;2.83;100.00;102496.44;10586292;28;20086;-60
2021/11/22 00:57:17;;;;;;;3.88;2.17;;;;;;;2.72;100.00;102498.13;10586391;28;20040;-59
2021/11/22 01:02:21;;;;;;;4.95;2.47;;;;;;;3.15;100.00;102508.56;10585359;28;20043;-58
2021/11/22 01:07:24;;;;;;;6.45;2.72;;;;;;;2.96;100.00;102516.31;10586144;28;20051;-58
2021/11/22 01:12:28;;;;;;;10.82;3.50;;;;;;;2.84;100.00;102525.75;10585492;28;20048;-59
2021/11/22 01:17:30;;;;;;;5.68;2.33;;;;;;;3.00;100.00;102535.28;10585852;28;20062;-59
2021/11/22 01:22:33;;;;;;;10.90;3.05;;;;;;;2.82;100.00;102527.47;10585005;28;20051;-59
2021/11/22 01:27:35;;;;;;;8.15;3.10;;;;;;;2.70;100.00;102547.28;10585188;28;20043;-59
2021/11/22 01:32:40;;;;;;;8.38;2.20;;;;;;;2.84;100.00;102552.50;10584535;28;20051;-58
2021/11/22 01:37:43;;;;;;;12.63;2.30;;;;;;;3.02;100.00;102563.75;10567106;28;20043;-58
2021/11/22 01:42:46;;;;;;;4.53;2.30;;;;;;;3.01;100.00;102568.09;10585068;28;20066;-59
2021/11/22 01:47:49;;;;;;;3.95;2.65;;;;;;;2.91;100.00;102563.75;10566159;28;20052;-59
2021/11/22 01:52:52;;;;;;;6.03;2.20;;;;;;;3.05;100.00;102582.75;10583873;28;20043;-59
2021/11/22 01:57:56;;;;;;;6.07;2.00;;;;;;;2.95;100.00;102587.03;10565623;28;20040;-59
2021/11/22 02:02:59;;;;;;;1.90;1.70;;;;;;;3.09;100.00;102591.38;10583608;28;20047;-59
2021/11/22 02:08:02;;;;;;;10.10;1.85;;;;;;;2.96;100.00;102591.34;10583433;28;20044;-59
2021/11/22 02:13:05;;;;;;;14.82;2.58;;;;;;;3.01;100.00;102599.13;10582949;28;20051;-58
2021/11/22 02:18:08;;;;;;;3.03;1.80;;;;;;;2.77;100.00;102600.78;10582418;28;20043;-59
2021/11/22 02:23:11;;;;;;;8.35;2.20;;;;;;;2.97;100.00;102618.94;10582664;28;20040;-60
2021/11/22 02:28:15;;;;;;;6.57;1.83;;;;;;;3.12;100.00;102617.28;10583358;28;20047;-59
2021/11/22 02:33:20;;;;;;;6.88;1.60;;;;;;;3.04;100.00;102613.78;10582262;28;20570;-58
2021/11/22 02:38:34;;;;;;;6.65;2.03;;;;;;;3.01;100.00;102613.78;10582905;28;20046;-59
2021/11/22 02:43:39;;;;;;;5.35;2.17;;;;;;;2.97;100.00;102615.50;10582086;28;20056;-59
2021/11/22 02:48:42;;;;;;;9.90;2.88;;;;;;;2.68;100.00;102629.19;10581820;28;20047;-58
2021/11/22 02:53:44;;;;;;;4.72;2.33;;;;;;;2.90;100.00;102629.28;10582017;28;20052;-59
2021/11/22 02:58:47;;;;;;;6.22;1.92;;;;;;;2.76;100.00;102627.50;10581889;28;20052;-58
2021/11/22 03:03:51;;;;;;;4.40;2.28;;;;;;;2.94;100.00;102642.25;10581597;28;20499;-59
2021/11/22 03:08:55;;;;;;;4.10;1.83;;;;;;;2.71;100.00;102651.63;10581591;28;20445;-58
2021/11/22 03:13:58;;;;;;;6.65;2.83;;;;;;;2.90;100.00;102665.50;10581629;28;20043;-58
2021/11/22 03:19:00;;;;;;;5.15;2.50;;;;;;;2.98;100.00;102710.38;10581223;28;20048;-59
2021/11/22 03:24:03;;;;;;;2.38;1.83;;;;;;;2.90;100.00;102753.47;10581568;28;20044;-58
2021/11/22 03:29:05;;;;;;;9.10;2.60;;;;;;;3.02;100.00;102769.06;10587742;28;20047;-59
2021/11/22 03:34:10;;;;;;;3.03;2.10;;;;;;;2.79;100.00;102774.09;10589406;28;20051;-59
2021/11/22 03:39:24;;;;;;;6.07;2.88;;;;;;;2.75;100.00;102785.28;10589282;28;20487;-58
2021/11/22 03:44:27;;;;;;;4.25;2.00;;;;;;;2.81;100.00;102792.19;10588807;28;20414;-59
2021/11/22 03:49:30;;;;;;;7.60;2.67;;;;;;;2.52;100.00;102816.13;10570875;28;20048;-59
2021/11/22 03:54:33;;;;;;;7.00;3.05;;;;;;;2.64;100.00;102844.69;10588970;28;20047;-59
2021/11/22 03:59:36;;;;;;;4.13;2.10;;;;;;;2.80;100.00;102804.28;10588437;28;20047;-59
2021/11/22 04:04:39;;;;;;;4.97;1.67;;;;;;;2.75;100.00;102821.50;10588499;28;20044;-58
2021/11/22 04:09:41;;;;;;;4.82;2.03;;;;;;;2.68;100.00;102806.78;10588186;28;20051;-59
2021/11/22 04:14:43;;;;;;;6.60;2.45;;;;;;;2.52;100.00;102803.19;10588429;28;20063;-58
2021/11/22 04:19:46;;;;;;;4.82;2.00;;;;;;;2.35;100.00;102805.63;10587801;28;20043;-59
2021/11/22 04:24:48;;;;;;;10.55;2.55;;;;;;;2.67;100.00;102817.97;10587415;28;20044;-59
2021/11/22 04:29:51;;;;;;;5.28;2.35;;;;;;;2.19;100.00;102812.41;10587332;28;20051;-59
2021/11/22 04:34:54;;;;;;;4.18;2.47;;;;;;;2.34;100.00;102825.47;10587098;28;20511;-59
2021/11/22 04:39:56;;;;;;;10.50;2.88;;;;;;;2.35;100.00;102834.06;10585683;28;20505;-58
2021/11/22 04:44:59;;;;;;;2.92;2.08;;;;;;;2.33;100.00;102835.78;10586758;28;20060;-59
2021/11/22 04:50:02;;;;;;;3.65;2.38;;;;;;;2.26;100.00;102847.78;10586600;28;20040;-59
2021/11/22 04:55:05;;;;;;;3.95;2.25;;;;;;;2.21;100.00;102845.16;10586560;28;20054;-58
2021/11/22 05:00:09;;;;;;;2.92;2.63;;;;;;;2.39;100.00;102864.28;10586094;28;20039;-58
2021/11/22 05:05:12;;;;;;;5.65;2.80;;;;;;;2.36;100.00;102869.44;10586169;28;20048;-58
2021/11/22 05:10:15;;;;;;;7.18;2.38;;;;;;;2.37;100.00;102889.25;10585640;28;20048;-59
2021/11/22 05:15:18;;;;;;;2.40;1.75;;;;;;;2.43;100.00;102884.13;10567471;28;20048;-59
2021/11/22 05:20:20;;;;;;;9.75;2.40;;;;;;;2.07;100.00;102876.84;10584965;28;20476;-59
2021/11/22 05:25:25;;;;;;;7.78;2.40;;;;;;;1.99;100.00;102880.22;10585471;28;20049;-58
2021/11/22 05:30:28;;;;;;;2.88;2.50;;;;;;;1.84;100.00;102908.47;10584766;28;20047;-58
2021/11/22 05:35:31;;;;;;;4.93;2.40;;;;;;;2.12;100.00;102895.84;10584681;28;20070;-59
2021/11/22 05:40:33;;;;;;;4.68;2.35;;;;;;;2.01;100.00;102891.44;10584494;28;20048;-59
2021/11/22 05:45:35;;;;;;;7.65;2.70;;;;;;;1.87;100.00;102913.66;10584109;28;20055;-59
2021/11/22 05:50:38;;;;;;;5.72;2.58;;;;;;;1.84;100.00;102916.22;10583677;28;20505;-59
2021/11/22 05:55:41;;;;;;;3.45;2.70;;;;;;;1.92;100.00;102924.06;10583892;28;20043;-58
2021/11/22 06:00:44;;;;;;;6.53;3.20;;;;;;;2.00;100.00;102966.34;10583479;28;20055;-58
2021/11/22 06:05:47;;;;;;;5.28;2.55;;;;;;;1.67;100.00;102927.16;10583416;28;20085;-58
2021/11/22 06:10:49;;;;;;;8.32;2.60;;;;;;;1.89;100.00;102935.22;10566128;28;20043;-59
2021/11/22 06:15:52;;;;;;;9.65;2.35;;;;;;;1.53;100.00;102962.28;10583155;28;20408;-59
2021/11/22 06:20:54;;;;;;;3.42;2.08;;;;;;;1.66;100.00;102952.97;10582795;28;20061;-58
2021/11/22 06:25:56;;;;;;;5.20;2.65;;;;;;;1.61;100.00;102957.22;10583082;28;20048;-59
2021/11/22 06:30:59;;;;;;;2.92;2.50;;;;;;;1.75;100.00;102980.63;10582529;28;20058;-60
2021/11/22 06:36:02;;;;;;;4.75;2.97;;;;;;;1.54;100.00;102963.13;10582821;28;20040;-58
2021/11/22 06:41:04;;;;;;;8.23;2.40;;;;;;;1.30;100.00;102990.31;10582348;28;20054;-59
2021/11/22 06:46:07;;;;;;;7.97;2.90;;;;;;;1.29;100.00;102997.19;10582182;28;20051;-58
2021/11/22 06:51:09;;;;;;;9.60;2.70;;;;;;;1.42;100.00;102969.84;10581687;28;20055;-58
2021/11/22 06:56:12;;;;;;;9.80;3.05;;;;;;;1.45;100.00;103007.75;10582070;28;20046;-58
2021/11/22 07:01:14;;;;;;;4.68;2.83;;;;;;;1.27;100.00;102995.41;10581057;28;20403;-58
2021/11/22 07:06:17;;;;;;;4.82;2.90;;;;;;;1.25;100.00;103002.25;10581955;28;20097;-59
2021/11/22 07:11:19;;;;;;;4.82;3.10;;;;;;;0.86;100.00;103016.19;10581339;28;20495;-58
2021/11/22 07:16:21;;;;;;;5.20;3.80;;;;;;;1.17;100.00;103038.25;10581914;28;20044;-59
2021/11/22 07:21:27;;;;;;;5.13;3.40;;;;;;;1.21;100.00;103039.16;10581789;28;20079;-59
2021/11/22 07:26:30;;;;;;;4.78;3.65;;;;;;;1.26;100.00;103050.44;10581465;28;20407;-58
2021/11/22 07:31:37;;;;;;;6.63;3.00;;;;;;;1.23;100.00;103060.72;10581218;28;20052;-60
2021/11/22 07:36:39;;;;;;;8.73;3.42;;;;;;;1.54;100.00;103079.31;10563474;28;20392;-58
2021/11/22 07:41:41;;;;;;;7.50;3.35;;;;;;;1.37;100.00;103079.91;10581083;28;20081;-59
2021/11/22 07:46:44;;;;;;;7.07;3.80;;;;;;;1.19;100.00;103087.31;10581518;28;20407;-60
2021/11/22 07:51:47;;;;;;;8.05;3.40;;;;;;;1.35;100.00;103103.97;10580666;28;20501;-58
2021/11/22 07:56:50;;;;;;;5.63;3.30;;;;;;;1.25;100.00;103095.16;10581168;28;20040;-59
2021/11/22 08:01:52;;;;;;;5.20;3.53;;;;;;;1.18;100.00;103095.88;10580600;28;20052;-59
2021/11/22 08:07:00;;;;;;;5.75;3.15;;;;;;;1.34;100.00;103118.56;10580760;28;20046;-58
2021/11/22 08:12:14;;;;;;;12.05;4.40;;;;;;;1.15;100.00;103125.09;10580580;28;20056;-58
2021/11/22 08:17:17;;;;;;;11.25;3.92;;;;;;;1.25;100.00;103129.59;10588110;28;20048;-59
2021/11/22 08:22:22;;;;;;;13.27;4.40;;;;;;;1.40;100.00;103143.63;10587534;28;20399;-58
2021/11/22 08:27:28;;;;;;;6.20;3.75;;;;;;;1.18;100.00;103125.16;10587675;28;20054;-58
2021/11/22 08:32:30;;;;;;;5.65;4.68;;;;;;;1.36;100.00;103126.31;10587675;28;20054;-59
2021/11/22 08:37:33;;;;;;;7.13;4.35;;;;;;;1.56;100.00;103149.94;10587098;28;20475;-59
2021/11/22 08:42:35;;;;;;;8.60;4.47;;;;;;;1.51;100.00;103149.84;10586633;28;20392;-59
2021/11/22 08:47:39;;;;;;;7.43;4.50;;;;;;;2.38;100.00;103178.84;10586826;28;20054;-59
2021/11/22 08:52:42;;;;;;;11.68;4.20;;;;;;;6.62;100.00;103256.97;10586544;28;20058;-59
2021/11/22 08:57:46;;;;;;;1638.43;148.40;;;;;;;9.18;92.28;103383.34;10586192;28;20148;-59
2021/11/22 09:02:48;;;;;;;85.72;10.35;;;;;;;9.64;85.49;103384.56;10586490;28;20059;-60
2021/11/22 09:07:51;;;;;;;3.33;2.80;;;;;;;10.39;79.40;103344.28;10586287;28;20043;-59
2021/11/22 09:12:54;;;;;;;5.80;2.50;;;;;;;11.44;75.73;103363.38;10585524;28;20055;-60
2021/11/22 09:17:57;;;;;;;6.50;2.47;;;;;;;11.96;70.42;103403.44;10567543;28;20047;-59
2021/11/22 09:23:01;;;;;;;6.10;1.92;;;;;;;13.47;67.61;103380.47;10585255;28;20055;-60
2021/11/22 09:28:04;;;;;;;5.00;2.10;;;;;;;13.12;69.21;103372.59;10584970;28;20048;-60
2021/11/22 09:33:09;;;;;;;3.53;1.60;;;;;;;14.22;62.46;103314.97;10584802;28;20051;-58
2021/11/22 09:38:12;;;;;;;6.22;1.90;;;;;;;15.56;59.94;103367.44;10585020;28;20043;-60
2021/11/22 09:43:14;;;;;;;3.65;1.55;;;;;;;14.40;58.33;103374.09;10584394;28;20418;-59
2021/11/22 09:48:17;;;;;;;8.95;2.42;;;;;;;12.53;66.80;103335.59;10584577;28;20044;-58
2021/11/22 09:53:20;;;;;;;4.43;2.08;;;;;;;9.75;75.17;103298.09;10584141;28;20054;-59
2021/11/22 09:58:23;;;;;;;4.05;2.05;;;;;;;13.60;65.28;103384.47;10583754;28;20047;-59
2021/11/22 10:03:26;;;;;;;2.28;1.58;;;;;;;12.39;62.87;103314.91;10583372;28;20047;-58
2021/11/22 10:08:29;;;;;;;4.78;1.58;;;;;;;7.61;81.58;103248.78;10583420;28;20476;-59
2021/11/22 10:13:37;;;;;;;5.20;1.90;;;;;;;7.02;87.84;103295.94;10565149;28;20043;-59
2021/11/22 10:18:46;;;;;;;5.32;1.80;;;;;;;6.41;92.21;103265.66;10564983;28;20054;-60
2021/11/22 10:23:50;;;;;;;4.30;1.60;;;;;;;7.01;89.71;103267.28;10583120;28;20051;-58
2021/11/22 10:28:54;;;;;;;9.05;2.33;;;;;;;6.17;92.52;103248.31;10582831;28;20051;-58
2021/11/22 10:33:57;;;;;;;5.38;2.28;;;;;;;5.95;97.38;103242.19;10582658;28;20051;-58
2021/11/22 10:39:00;;;;;;;2.85;1.85;;;;;;;5.95;98.99;103253.47;10581649;28;20044;-58
2021/11/22 10:44:07;;;;;;;5.65;2.60;;;;;;;5.92;99.34;103263.88;10582432;28;20059;-58
2021/11/22 10:49:13;;;;;;;4.95;2.22;;;;;;;6.18;96.28;103259.59;10564383;28;20044;-58
2021/11/22 10:54:18;;;;;;;2.92;2.40;;;;;;;6.37;96.46;103261.34;10582181;28;20052;-59
2021/11/22 10:59:23;;;;;;;4.00;2.15;;;;;;;6.49;96.58;103274.34;10581915;28;20078;-58
2021/11/22 11:04:31;;;;;;;5.20;1.92;;;;;;;6.10;97.96;103260.47;10581547;28;20051;-58
2021/11/22 11:09:36;;;;;;;4.75;1.63;;;;;;;6.07;98.04;103256.97;10582140;28;20083;-59
2021/11/22 11:14:47;;;;;;;3.55;1.38;;;;;;;6.13;97.20;103255.22;10563261;28;20055;-59
2021/11/22 11:19:53;;;;;;;5.10;1.65;;;;;;;6.01;97.47;103259.59;10582117;28;20047;-58
2021/11/22 11:25:00;;;;;;;3.17;1.63;;;;;;;5.93;100.00;103249.13;10581321;28;20044;-58
2021/11/22 11:30:13;;;;;;;6.03;1.58;;;;;;;5.98;100.00;103257.81;10581848;28;20047;-58
2021/11/22 11:35:20;;;;;;;4.03;1.80;;;;;;;6.17;97.98;103256.13;10563782;28;20395;-58
2021/11/22 11:40:46;;;;;;;3.30;1.70;;;;;;;6.22;100.00;103256.09;10581477;28;20285;-58
2021/11/22 11:46:01;;;;;;;3.35;1.92;;;;;;;6.67;95.50;103272.56;10581073;28;20063;-59
2021/11/22 11:51:14;;;;;;;4.93;2.20;;;;;;;5.83;97.81;103243.03;10588425;28;20052;-58
2021/11/22 11:56:46;;;;;;;2.13;1.77;;;;;;;5.89;100.00;103256.06;10588468;28;20452;-58
2021/11/22 12:02:17;;;;;;;6.82;1.90;;;;;;;5.63;100.00;103248.22;10588755;28;20075;-59
2021/11/22 12:07:36;;;;;;;2.63;1.30;;;;;;;5.65;99.97;103249.09;10589060;28;20097;-59
2021/11/22 12:12:52;;;;;;;2.58;1.45;;;;;;;5.71;100.00;103256.03;10588021;28;20568;-58
2021/11/22 12:17:57;;;;;;;2.38;1.30;;;;;;;5.48;98.97;103250.75;10588851;28;20054;-58
2021/11/22 12:23:02;;;;;;;5.38;1.75;;;;;;;5.69;97.32;103244.75;10587716;28;20040;-58
2021/11/22 12:28:15;;;;;;;2.05;1.27;;;;;;;5.48;98.69;103242.97;10587885;28;20052;-58
2021/11/22 12:33:23;;;;;;;5.78;1.73;;;;;;;5.64;99.37;103255.13;10587370;28;20131;-58
2021/11/22 12:38:27;;;;;;;6.20;1.85;;;;;;;5.61;98.19;103256.88;10587010;28;20509;-58
2021/11/22 12:43:52;;;;;;;3.72;1.60;;;;;;;5.49;100.00;103255.09;10586354;28;20556;-58
2021/11/22 12:48:56;;;;;;;5.43;2.25;;;;;;;5.51;100.00;103253.38;10587061;28;20050;-58
2021/11/22 12:54:05;;;;;;;4.15;1.73;;;;;;;5.34;100.00;103250.72;10568700;28;20521;-59
2021/11/22 12:59:16;;;;;;;5.50;2.10;;;;;;;5.36;100.00;103249.88;10585310;28;20412;-59
2021/11/22 13:04:44;;;;;;;2.78;1.60;;;;;;;5.28;99.18;103238.56;10586133;28;20044;-59
2021/11/22 13:09:47;;;;;;;4.25;1.95;;;;;;;5.28;99.61;103251.56;10585824;28;20514;-58
2021/11/22 13:15:00;;;;;;;7.20;1.90;;;;;;;5.39;97.81;103251.59;10568128;28;20047;-59
2021/11/22 13:20:02;;;;;;;3.67;2.35;;;;;;;5.49;98.08;103263.75;10569130;28;20047;-58
2021/11/22 13:25:22;;;;;;;5.60;1.50;;;;;;;5.33;97.99;103251.56;10584686;28;20065;-58
2021/11/22 13:30:31;;;;;;;8.07;1.70;;;;;;;5.61;94.26;103256.88;10584106;28;20043;-57
2021/11/22 13:35:35;;;;;;;6.50;1.73;;;;;;;5.14;95.77;103243.69;10585220;28;20048;-58
2021/11/22 13:40:38;;;;;;;6.57;1.80;;;;;;;5.12;95.29;103240.22;10584330;28;20054;-58
2021/11/22 13:45:41;;;;;;;4.22;1.20;;;;;;;5.11;92.34;103246.31;10584625;28;20069;-56
2021/11/22 13:50:49;;;;;;;3.47;1.42;;;;;;;5.18;95.10;103255.84;10584119;28;20427;-57
2021/11/22 13:55:55;;;;;;;1.38;1.27;;;;;;;5.00;94.25;103247.97;10583930;28;20105;-58
2021/11/22 14:01:01;;;;;;;3.55;1.58;;;;;;;5.12;93.81;103253.22;10583923;28;20054;-59
2021/11/22 14:06:04;;;;;;;7.85;1.48;;;;;;;4.84;96.93;103252.19;10583790;28;20040;-56
2021/11/22 14:11:21;;;;;;;6.00;1.35;;;;;;;4.52;98.75;103254.56;10565249;28;20054;-58
2021/11/22 14:16:28;;;;;;;5.13;1.48;;;;;;;4.62;97.50;103251.19;10583298;28;20126;-59
2021/11/22 14:21:33;;;;;;;4.82;1.40;;;;;;;4.33;100.00;103254.44;10582918;28;20044;-58
2021/11/22 14:26:36;;;;;;;1.90;1.75;;;;;;;4.41;100.00;103262.28;10565227;28;20059;-59
2021/11/22 14:31:47;;;;;;;5.32;1.55;;;;;;;4.21;100.00;103272.50;10582964;28;20048;-58
2021/11/22 14:36:52;;;;;;;4.55;1.48;;;;;;;3.88;100.00;103251.47;10582800;28;20066;-60
2021/11/22 14:41:55;;;;;;;3.67;1.15;;;;;;;3.78;100.00;103265.16;10582280;28;20066;-59
2021/11/22 14:47:02;;;;;;;6.57;1.70;;;;;;;3.77;100.00;103291.94;10582302;28;20039;-63
2021/11/22 14:52:24;;;;;;;2.95;1.90;;;;;;;3.50;100.00;103282.13;10582683;28;20051;-60
2021/11/22 14:57:26;;;;;;;1.15;0.93;;;;;;;3.65;100.00;103341.03;10582043;28;20452;-60
2021/11/22 15:02:29;;;;;;;4.55;1.35;;;;;;;3.42;100.00;103320.00;10581998;28;20054;-60
2021/11/22 15:07:32;;;;;;;7.20;1.80;;;;;;;3.11;100.00;103338.59;10581971;28;20048;-60
2021/11/22 15:12:35;;;;;;;3.92;1.13;;;;;;;3.02;100.00;103340.16;10582162;28;20055;-60
2021/11/22 15:17:39;;;;;;;3.95;1.38;;;;;;;2.84;100.00;103338.16;10581766;28;20067;-61
2021/11/22 15:22:42;;;;;;;2.65;1.10;;;;;;;2.83;100.00;103345.06;10583811;28;20121;-60
2021/11/22 15:27:48;;;;;;;4.80;1.75;;;;;;;2.75;100.00;103332.00;10590012;28;20511;-60
2021/11/22 15:32:51;;;;;;;7.70;1.42;;;;;;;2.58;100.00;103342.06;10589766;28;20047;-60
2021/11/22 15:37:53;;;;;;;1.10;1.00;;;;;;;2.34;100.00;103346.84;10589902;28;20051;-59
2021/11/22 15:42:55;;;;;;;1.88;1.42;;;;;;;2.53;100.00;103348.03;10588911;28;20065;-59
2021/11/22 15:48:00;;;;;;;4.35;2.60;;;;;;;2.45;100.00;103355.63;10589316;28;20044;-60
2021/11/22 15:53:03;;;;;;;2.63;1.27;;;;;;;2.26;100.00;103346.69;10588782;28;20044;-59
2021/11/22 15:58:05;;;;;;;6.30;2.40;;;;;;;2.30;100.00;103361.41;10588916;28;20047;-59
2021/11/22 16:03:10;;;;;;;4.03;2.33;;;;;;;2.15;100.00;103363.69;10588569;28;20088;-59
2021/11/22 16:08:14;;;;;;;2.75;1.83;;;;;;;2.03;100.00;103360.06;10588445;28;20122;-61
2021/11/22 16:13:16;;;;;;;3.28;2.60;;;;;;;1.81;100.00;103351.00;10569961;28;20043;-60
2021/11/22 16:18:28;;;;;;;1.60;1.50;;;;;;;1.84;100.00;103357.94;10587928;28;20078;-61
2021/11/22 16:23:30;;;;;;;2.60;2.03;;;;;;;1.86;100.00;103351.94;10587869;28;20044;-59
2021/11/22 16:28:33;;;;;;;8.20;2.80;;;;;;;2.02;100.00;103363.47;10588014;28;20043;-59
2021/11/22 16:33:35;;;;;;;5.32;2.15;;;;;;;1.75;100.00;103360.31;10585994;28;20047;-59
2021/11/22 16:38:38;;;;;;;6.82;3.60;;;;;;;1.69;100.00;103363.66;10587339;28;20047;-60
2021/11/22 16:43:40;;;;;;;2.63;1.90;;;;;;;1.82;100.00;103373.41;10587315;28;20059;-61
2021/11/22 16:48:43;;;;;;;4.35;2.70;;;;;;;1.59;100.00;103362.59;10586935;28;20047;-60
2021/11/22 16:53:46;;;;;;;3.50;2.72;;;;;;;1.57;100.00;103363.41;10586446;28;20048;-59
2021/11/22 16:58:48;;;;;;;5.65;2.92;;;;;;;1.55;100.00;103365.97;10586554;28;20051;-60
2021/11/22 17:03:51;;;;;;;3.95;3.15;;;;;;;1.43;100.00;103368.25;10586240;28;20051;-60
2021/11/22 17:08:53;;;;;;;5.63;2.63;;;;;;;1.36;100.00;103368.97;10586082;28;20058;-60
2021/11/22 17:13:56;;;;;;;4.63;3.10;;;;;;;1.29;100.00;103379.19;10585723;28;20054;-59
2021/11/22 17:19:02;;;;;;;5.93;3.80;;;;;;;1.25;100.00;103372.19;10585618;28;20050;-59
2021/11/22 17:24:04;;;;;;;11.35;4.25;;;;;;;1.23;100.00;103366.13;10585603;28;20047;-60
2021/11/22 17:29:07;;;;;;;5.20;4.25;;;;;;;1.49;100.00;103377.00;10585225;28;20071;-59
2021/11/22 17:34:10;;;;;;;7.13;4.18;;;;;;;1.25;100.00;103379.06;10585551;28;20056;-58
2021/11/22 17:39:12;;;;;;;4.20;3.72;;;;;;;1.25;100.00;103379.06;10584704;28;20372;-60
2021/11/22 17:44:14;;;;;;;5.90;4.00;;;;;;;1.29;100.00;103386.03;10584010;28;20047;-58
2021/11/22 17:49:17;;;;;;;9.07;5.38;;;;;;;1.34;100.00;103388.72;10584176;28;20050;-59
2021/11/22 17:54:21;;;;;;;11.23;9.73;;;;;;;1.41;100.00;103395.75;10584268;28;20043;-59
2021/11/22 17:59:24;;;;;;;8.55;7.75;;;;;;;1.28;100.00;103398.06;10583968;28;20043;-59
2021/11/22 18:04:27;;;;;;;8.25;4.18;;;;;;;1.27;100.00;103398.03;10583521;28;20097;-59
2021/11/22 18:09:29;;;;;;;7.07;4.93;;;;;;;0.88;100.00;103391.97;10583482;28;20062;-59
2021/11/22 18:14:31;;;;;;;5.85;4.18;;;;;;;1.06;100.00;103416.44;10583854;28;20055;-59
2021/11/22 18:19:34;;;;;;;9.85;3.83;;;;;;;1.17;100.00;103432.22;10583165;28;20047;-60
2021/11/22 18:24:40;;;;;;;10.68;5.63;;;;;;;0.96;100.00;103417.06;10582537;28;20586;-60
2021/11/22 18:29:43;;;;;;;19.85;9.98;;;;;;;0.92;100.00;103417.00;10582968;28;20052;-59
2021/11/22 18:34:45;;;;;;;16.27;8.77;;;;;;;0.92;100.00;103416.13;10582476;28;20048;-60
2021/11/22 18:39:48;;;;;;;15.05;7.90;;;;;;;1.22;100.00;103423.72;10582351;28;20055;-60
2021/11/22 18:44:51;;;;;;;12.18;6.50;;;;;;;1.27;100.00;103429.88;10582528;28;20063;-59
2021/11/22 18:49:53;;;;;;;11.90;6.95;;;;;;;0.81;100.00;103422.72;10582523;28;20047;-60
2021/11/22 18:54:56;;;;;;;16.20;6.82;;;;;;;1.15;100.00;103432.16;10582079;28;20048;-59
2021/11/22 18:59:58;;;;;;;10.40;6.43;;;;;;;0.89;100.00;103431.50;10581515;28;20058;-59
2021/11/22 19:05:00;;;;;;;9.02;5.85;;;;;;;0.88;100.00;103435.81;10563902;28;20052;-60
2021/11/22 19:10:03;;;;;;;4.93;3.88;;;;;;;0.86;100.00;103434.03;10581511;28;20043;-58
2021/11/22 19:15:06;;;;;;;7.10;4.45;;;;;;;0.78;100.00;103431.25;10581630;28;20491;-58
2021/11/22 19:20:11;;;;;;;8.18;4.28;;;;;;;0.83;100.00;103428.81;10581392;28;20047;-59
2021/11/22 19:25:14;;;;;;;8.77;4.63;;;;;;;0.82;100.00;103427.03;10581806;28;20043;-59
2021/11/22 19:30:17;;;;;;;7.85;3.70;;;;;;;0.90;100.00;103434.13;10581240;28;20048;-59
2021/11/22 19:35:22;;;;;;;7.65;4.30;;;;;;;0.96;100.00;103433.44;10581202;28;20058;-59
2021/11/22 19:40:24;;;;;;;5.22;4.18;;;;;;;0.92;100.00;103437.66;10581946;28;20054;-59
2021/11/22 19:45:27;;;;;;;6.20;3.40;;;;;;;0.87;100.00;103434.06;10581539;28;20058;-60
2021/11/22 19:50:31;;;;;;;4.78;4.25;;;;;;;0.82;100.00;103433.06;10562951;28;20043;-58
2021/11/22 19:55:33;;;;;;;8.90;4.40;;;;;;;1.09;100.00;103443.22;10562897;28;20492;-60
2021/11/22 20:00:36;;;;;;;10.45;4.78;;;;;;;0.78;100.00;103441.56;10580900;28;20055;-60
2021/11/22 20:05:39;;;;;;;6.15;3.95;;;;;;;0.82;100.00;103465.72;10580619;28;20048;-59
2021/11/22 20:10:43;;;;;;;7.90;4.20;;;;;;;0.86;100.00;103439.22;10568207;28;20098;-59
2021/11/22 20:15:46;;;;;;;13.85;5.25;;;;;;;0.77;100.00;103438.94;10570235;28;20047;-59
2021/11/22 20:20:50;;;;;;;9.35;4.30;;;;;;;0.72;100.00;103437.13;10588137;28;20047;-60
2021/11/22 20:25:52;;;;;;;10.32;4.60;;;;;;;0.77;100.00;103442.41;10587661;28;20044;-59
2021/11/22 20:30:55;;;;;;;5.93;3.70;;;;;;;0.90;100.00;103449.63;10569468;28;20414;-59
2021/11/22 20:35:58;;;;;;;7.05;3.63;;;;;;;0.77;100.00;103442.41;10587785;28;20051;-59
2021/11/22 20:41:02;;;;;;;5.60;3.80;;;;;;;0.87;100.00;103451.25;10587065;28;20049;-56
2021/11/22 20:46:04;;;;;;;7.80;4.18;;;;;;;0.53;100.00;103442.63;10587708;28;20491;-55
2021/11/22 20:51:08;;;;;;;4.78;3.42;;;;;;;0.71;100.00;103453.44;10586737;28;20491;-59
2021/11/22 20:56:11;;;;;;;7.35;4.03;;;;;;;0.60;100.00;103456.56;10587280;28;20043;-59
2021/11/22 21:01:13;;;;;;;14.85;6.60;;;;;;;0.50;100.00;103450.28;10586356;28;20050;-59
2021/11/22 21:06:16;;;;;;;9.90;4.22;;;;;;;0.51;100.00;103437.44;10586184;28;20125;-60
2021/11/22 21:11:19;;;;;;;8.18;3.70;;;;;;;0.69;100.00;103449.06;10568469;28;20043;-60
2021/11/22 21:16:21;;;;;;;3.55;3.25;;;;;;;0.53;100.00;103445.22;10585857;28;20423;-60
2021/11/22 21:21:23;;;;;;;5.35;3.30;;;;;;;0.68;100.00;103452.47;10584569;28;20491;-59
2021/11/22 21:26:26;;;;;;;12.77;6.40;;;;;;;0.76;100.00;103461.31;10585597;28;20058;-60
2021/11/22 21:31:31;;;;;;;6.32;3.63;;;;;;;0.44;100.00;103451.00;10585303;28;20069;-59
2021/11/22 21:36:34;;;;;;;17.42;6.50;;;;;;;0.72;100.00;103470.66;10585534;28;20109;-58
2021/11/22 21:41:38;;;;;;;7.65;5.10;;;;;;;0.59;100.00;103459.97;10584677;28;20063;-58
2021/11/22 21:46:44;;;;;;;10.02;5.28;;;;;;;0.54;100.00;103475.31;10584794;28;20048;-59
2021/11/22 21:51:47;;;;;;;12.82;4.85;;;;;;;0.73;100.00;103477.56;10584298;28;20500;-58
2021/11/22 21:56:50;;;;;;;10.98;5.57;;;;;;;0.68;100.00;103480.84;10565990;28;20499;-59
2021/11/22 22:01:54;;;;;;;12.23;4.47;;;;;;;0.78;100.00;103485.41;10583880;28;20047;-59
2021/11/22 22:06:57;;;;;;;13.30;6.85;;;;;;;0.64;100.00;103481.59;10583650;28;20054;-59
2021/11/22 22:12:03;;;;;;;11.45;5.22;;;;;;;1.03;100.00;103496.38;10583466;28;20407;-58
2021/11/22 22:17:06;;;;;;;7.20;4.70;;;;;;;0.75;100.00;103482.75;10583358;28;20492;-58
2021/11/22 22:22:09;;;;;;;10.65;5.90;;;;;;;0.74;100.00;103478.44;10584647;28;20044;-58
2021/11/22 22:27:12;;;;;;;9.90;4.45;;;;;;;0.87;100.00;103490.81;10583033;28;20084;-59
2021/11/22 22:32:15;;;;;;;8.10;4.35;;;;;;;0.62;100.00;103489.28;10582002;28;20048;-60
2021/11/22 22:37:17;;;;;;;10.52;4.22;;;;;;;0.52;100.00;103488.19;10582802;28;20051;-59
2021/11/22 22:42:19;;;;;;;10.13;4.43;;;;;;;0.55;100.00;103490.84;10564394;28;20048;-60
2021/11/22 22:47:22;;;;;;;9.45;3.78;;;;;;;0.65;100.00;103497.09;10582260;28;20046;-60
2021/11/22 22:52:25;;;;;;;4.22;2.70;;;;;;;0.52;100.00;103507.91;10582369;28;20052;-59
2021/11/22 22:57:27;;;;;;;5.60;3.17;;;;;;;0.79;100.00;103502.66;10582392;28;20055;-59
2021/11/22 23:02:30;;;;;;;6.43;3.08;;;;;;;0.67;100.00;103499.72;10582059;28;20125;-59
2021/11/22 23:07:34;;;;;;;9.82;3.88;;;;;;;0.59;100.00;103498.63;10581637;28;20404;-60
2021/11/22 23:12:36;;;;;;;4.88;2.45;;;;;;;0.58;100.00;103497.78;10581869;28;20055;-59
2021/11/22 23:17:39;;;;;;;15.10;2.90;;;;;;;0.92;100.00;103517.63;10581781;28;20055;-60